sensor_id;sensor_type;location;lat;lon;timestamp;P1;durP1;ratioP1;P2;durP2;ratioP2
59161;SDS011;44942;48.936;8.260;2022-12-07T09:19:53;7.22;;;5.30;;
59161;SDS011;44942;48.936;8.260;2022-12-07T09:24:53;6.10;;;5.50;;
59161;SDS011;44942;48.936;8.260;2022-12-07T09:29:54;8.03;;;5.20;;
59161;SDS011;44942;48.936;8.260;2022-12-07T09:34:55;6.15;;;5.50;;
59161;SDS011;44942;48.936;8.260;2022-12-07T09:39:55;5.97;;;5.33;;
59161;SDS011;44942;48.936;8.260;2022-12-07T09:44:56;5.80;;;5.30;;
59161;SDS011;44942;48.936;8.260;2022-12-07T09:50:00;5.28;;;4.78;;
59161;SDS011;44942;48.936;8.260;2022-12-07T09:55:12;6.47;;;5.22;;
59161;SDS011;44942;48.936;8.260;2022-12-07T10:00:15;5.85;;;5.22;;
59161;SDS011;44942;48.936;8.260;2022-12-07T10:05:20;6.15;;;5.55;;
59161;SDS011;44942;48.936;8.260;2022-12-07T10:10:31;9.95;;;5.72;;
59161;SDS011;44942;48.936;8.260;2022-12-07T10:20:50;5.90;;;5.30;;
59161;SDS011;44942;48.936;8.260;2022-12-07T10:26:17;6.57;;;5.80;;
59161;SDS011;44942;48.936;8.260;2022-12-07T10:31:31;6.07;;;5.47;;
59161;SDS011;44942;48.936;8.260;2022-12-07T10:41:32;6.03;;;5.40;;
59161;SDS011;44942;48.936;8.260;2022-12-07T10:46:39;6.17;;;5.20;;
59161;SDS011;44942;48.936;8.260;2022-12-07T10:52:03;5.93;;;4.80;;
59161;SDS011;44942;48.936;8.260;2022-12-07T10:57:32;6.25;;;4.82;;
59161;SDS011;44942;48.936;8.260;2022-12-07T11:14:01;4.50;;;4.10;;
59161;SDS011;44942;48.936;8.260;2022-12-07T11:19:06;5.10;;;4.32;;
59161;SDS011;44942;48.936;8.260;2022-12-07T11:24:15;5.03;;;4.30;;
59161;SDS011;44942;48.936;8.260;2022-12-07T11:29:21;6.35;;;4.43;;
59161;SDS011;44942;48.936;8.260;2022-12-07T11:39:56;5.57;;;4.00;;
59161;SDS011;44942;48.936;8.260;2022-12-07T11:45:03;4.78;;;4.18;;
59161;SDS011;44942;48.936;8.260;2022-12-07T12:00:39;4.75;;;3.88;;
59161;SDS011;44942;48.936;8.260;2022-12-07T12:05:42;4.68;;;3.58;;
59161;SDS011;44942;48.936;8.260;2022-12-07T12:21:15;4.57;;;4.18;;
59161;SDS011;44942;48.936;8.260;2022-12-07T12:26:20;5.00;;;3.80;;
59161;SDS011;44942;48.936;8.260;2022-12-07T12:52:49;4.55;;;3.75;;
59161;SDS011;44942;48.936;8.260;2022-12-07T12:57:27;4.43;;;2.87;;
59161;SDS011;44942;48.936;8.260;2022-12-07T13:02:36;6.15;;;4.70;;
59161;SDS011;44942;48.936;8.260;2022-12-07T13:23:30;5.30;;;4.25;;
59161;SDS011;44942;48.936;8.260;2022-12-07T13:33:47;5.03;;;4.20;;
59161;SDS011;44942;48.936;8.260;2022-12-07T13:38:52;6.80;;;4.35;;
59161;SDS011;44942;48.936;8.260;2022-12-07T13:44:08;5.20;;;4.40;;
59161;SDS011;44942;48.936;8.260;2022-12-07T13:54:55;6.63;;;4.13;;
59161;SDS011;44942;48.936;8.260;2022-12-07T14:00:06;4.57;;;4.13;;
59161;SDS011;44942;48.936;8.260;2022-12-07T14:05:23;5.20;;;3.95;;
59161;SDS011;44942;48.936;8.260;2022-12-07T14:15:53;4.63;;;3.80;;
59161;SDS011;44942;48.936;8.260;2022-12-07T14:26:13;5.10;;;3.90;;
59161;SDS011;44942;48.936;8.260;2022-12-07T14:31:16;4.97;;;3.80;;
59161;SDS011;44942;48.936;8.260;2022-12-07T14:36:21;4.45;;;3.67;;
59161;SDS011;44942;48.936;8.260;2022-12-07T14:41:21;4.70;;;3.90;;
59161;SDS011;44942;48.936;8.260;2022-12-07T14:46:41;4.80;;;3.70;;
59161;SDS011;44942;48.936;8.260;2022-12-07T14:51:42;5.43;;;3.83;;
59161;SDS011;44942;48.936;8.260;2022-12-07T14:56:46;5.50;;;3.72;;
59161;SDS011;44942;48.936;8.260;2022-12-07T15:01:49;4.47;;;3.58;;
59161;SDS011;44942;48.936;8.260;2022-12-07T15:06:57;4.20;;;3.80;;
59161;SDS011;44942;48.936;8.260;2022-12-07T15:11:59;4.22;;;3.63;;
59161;SDS011;44942;48.936;8.260;2022-12-07T15:16:59;4.65;;;3.60;;
59161;SDS011;44942;48.936;8.260;2022-12-07T15:22:00;7.30;;;3.73;;
59161;SDS011;44942;48.936;8.260;2022-12-07T15:27:00;4.40;;;3.57;;
59161;SDS011;44942;48.936;8.260;2022-12-07T15:32:01;3.50;;;3.20;;
59161;SDS011;44942;48.936;8.260;2022-12-07T15:37:02;4.07;;;3.53;;
59161;SDS011;44942;48.936;8.260;2022-12-07T15:42:03;5.47;;;3.97;;
59161;SDS011;44942;48.936;8.260;2022-12-07T15:47:04;4.53;;;4.07;;
59161;SDS011;44942;48.936;8.260;2022-12-07T15:52:05;5.07;;;4.10;;
59161;SDS011;44942;48.936;8.260;2022-12-07T15:57:05;4.77;;;4.27;;
59161;SDS011;44942;48.936;8.260;2022-12-07T16:02:07;5.33;;;4.37;;
59161;SDS011;44942;48.936;8.260;2022-12-07T16:07:10;4.88;;;4.35;;
59161;SDS011;44942;48.936;8.260;2022-12-07T16:12:11;4.45;;;4.05;;
59161;SDS011;44942;48.936;8.260;2022-12-07T16:17:13;6.15;;;4.00;;
59161;SDS011;44942;48.936;8.260;2022-12-07T16:22:13;4.77;;;3.83;;
59161;SDS011;44942;48.936;8.260;2022-12-07T16:27:14;4.77;;;3.90;;
59161;SDS011;44942;48.936;8.260;2022-12-07T16:32:15;4.93;;;3.90;;
59161;SDS011;44942;48.936;8.260;2022-12-07T16:37:15;4.20;;;3.80;;
59161;SDS011;44942;48.936;8.260;2022-12-07T16:42:16;5.30;;;4.23;;
59161;SDS011;44942;48.936;8.260;2022-12-07T16:47:17;5.63;;;4.13;;
59161;SDS011;44942;48.936;8.260;2022-12-07T16:52:18;5.40;;;4.47;;
59161;SDS011;44942;48.936;8.260;2022-12-07T16:57:19;6.35;;;4.95;;
59161;SDS011;44942;48.936;8.260;2022-12-07T17:02:20;7.40;;;5.03;;
59161;SDS011;44942;48.936;8.260;2022-12-07T17:07:20;12.43;;;5.83;;
59161;SDS011;44942;48.936;8.260;2022-12-07T17:12:21;14.33;;;6.97;;
59161;SDS011;44942;48.936;8.260;2022-12-07T17:17:21;14.80;;;7.43;;
59161;SDS011;44942;48.936;8.260;2022-12-07T17:22:22;17.80;;;7.80;;
59161;SDS011;44942;48.936;8.260;2022-12-07T17:27:22;16.43;;;7.67;;
59161;SDS011;44942;48.936;8.260;2022-12-07T17:32:23;13.97;;;8.10;;
59161;SDS011;44942;48.936;8.260;2022-12-07T17:37:24;15.87;;;8.10;;
59161;SDS011;44942;48.936;8.260;2022-12-07T17:42:24;23.47;;;8.00;;
59161;SDS011;44942;48.936;8.260;2022-12-07T17:47:39;16.88;;;8.43;;
59161;SDS011;44942;48.936;8.260;2022-12-07T17:52:40;15.03;;;8.07;;
59161;SDS011;44942;48.936;8.260;2022-12-07T17:57:59;14.45;;;8.00;;
59161;SDS011;44942;48.936;8.260;2022-12-07T18:02:59;13.37;;;7.67;;
59161;SDS011;44942;48.936;8.260;2022-12-07T18:08:00;13.97;;;7.80;;
59161;SDS011;44942;48.936;8.260;2022-12-07T18:13:00;16.03;;;8.53;;
59161;SDS011;44942;48.936;8.260;2022-12-07T18:18:20;13.43;;;7.40;;
59161;SDS011;44942;48.936;8.260;2022-12-07T18:23:20;13.00;;;6.93;;
59161;SDS011;44942;48.936;8.260;2022-12-07T18:28:21;12.20;;;7.70;;
59161;SDS011;44942;48.936;8.260;2022-12-07T18:33:21;12.63;;;7.20;;
59161;SDS011;44942;48.936;8.260;2022-12-07T18:38:22;10.95;;;6.93;;
59161;SDS011;44942;48.936;8.260;2022-12-07T18:43:23;12.17;;;6.93;;
59161;SDS011;44942;48.936;8.260;2022-12-07T18:48:24;13.60;;;7.22;;
59161;SDS011;44942;48.936;8.260;2022-12-07T18:53:25;12.27;;;7.43;;
59161;SDS011;44942;48.936;8.260;2022-12-07T18:58:26;13.00;;;7.30;;
59161;SDS011;44942;48.936;8.260;2022-12-07T19:03:26;12.47;;;7.07;;
59161;SDS011;44942;48.936;8.260;2022-12-07T19:08:27;12.30;;;7.40;;
59161;SDS011;44942;48.936;8.260;2022-12-07T19:13:28;14.93;;;7.47;;
59161;SDS011;44942;48.936;8.260;2022-12-07T19:18:28;11.00;;;7.40;;
59161;SDS011;44942;48.936;8.260;2022-12-07T19:23:30;16.90;;;10.88;;
59161;SDS011;44942;48.936;8.260;2022-12-07T19:28:30;14.40;;;8.90;;
59161;SDS011;44942;48.936;8.260;2022-12-07T19:33:31;15.00;;;8.63;;
59161;SDS011;44942;48.936;8.260;2022-12-07T19:38:31;14.87;;;9.43;;
59161;SDS011;44942;48.936;8.260;2022-12-07T19:43:33;15.10;;;9.57;;
59161;SDS011;44942;48.936;8.260;2022-12-07T19:48:33;22.07;;;9.50;;
59161;SDS011;44942;48.936;8.260;2022-12-07T19:53:34;16.43;;;8.87;;
59161;SDS011;44942;48.936;8.260;2022-12-07T19:58:34;14.77;;;9.10;;
59161;SDS011;44942;48.936;8.260;2022-12-07T20:03:35;13.70;;;8.87;;
59161;SDS011;44942;48.936;8.260;2022-12-07T20:08:36;19.00;;;9.50;;
59161;SDS011;44942;48.936;8.260;2022-12-07T20:13:36;13.20;;;9.50;;
59161;SDS011;44942;48.936;8.260;2022-12-07T20:18:37;12.33;;;9.73;;
59161;SDS011;44942;48.936;8.260;2022-12-07T20:23:37;11.70;;;9.30;;
59161;SDS011;44942;48.936;8.260;2022-12-07T20:28:38;12.93;;;10.47;;
59161;SDS011;44942;48.936;8.260;2022-12-07T20:33:42;12.25;;;9.68;;
59161;SDS011;44942;48.936;8.260;2022-12-07T20:38:46;10.73;;;9.05;;
59161;SDS011;44942;48.936;8.260;2022-12-07T20:43:47;10.57;;;8.90;;
59161;SDS011;44942;48.936;8.260;2022-12-07T20:48:47;14.50;;;9.13;;
59161;SDS011;44942;48.936;8.260;2022-12-07T20:53:48;12.40;;;9.40;;
59161;SDS011;44942;48.936;8.260;2022-12-07T20:58:49;10.53;;;8.87;;
59161;SDS011;44942;48.936;8.260;2022-12-07T21:03:53;11.03;;;8.97;;
59161;SDS011;44942;48.936;8.260;2022-12-07T21:08:56;10.48;;;9.02;;
59161;SDS011;44942;48.936;8.260;2022-12-07T21:13:58;11.18;;;8.55;;
59161;SDS011;44942;48.936;8.260;2022-12-07T21:18:59;11.23;;;8.43;;
59161;SDS011;44942;48.936;8.260;2022-12-07T21:24:04;11.68;;;8.85;;
59161;SDS011;44942;48.936;8.260;2022-12-07T21:29:07;11.70;;;9.13;;
59161;SDS011;44942;48.936;8.260;2022-12-07T21:34:07;10.33;;;8.83;;
59161;SDS011;44942;48.936;8.260;2022-12-07T21:39:08;10.50;;;8.40;;
59161;SDS011;44942;48.936;8.260;2022-12-07T21:44:09;11.00;;;9.00;;
59161;SDS011;44942;48.936;8.260;2022-12-07T21:49:10;17.53;;;13.77;;
59161;SDS011;44942;48.936;8.260;2022-12-07T21:54:13;18.73;;;15.30;;
59161;SDS011;44942;48.936;8.260;2022-12-07T21:59:14;16.13;;;12.50;;
59161;SDS011;44942;48.936;8.260;2022-12-07T22:04:17;12.90;;;11.05;;
59161;SDS011;44942;48.936;8.260;2022-12-07T22:09:20;11.95;;;10.57;;
59161;SDS011;44942;48.936;8.260;2022-12-07T22:14:23;12.80;;;10.98;;
59161;SDS011;44942;48.936;8.260;2022-12-07T22:19:42;14.88;;;10.43;;
59161;SDS011;44942;48.936;8.260;2022-12-07T22:24:43;12.47;;;10.27;;
59161;SDS011;44942;48.936;8.260;2022-12-07T22:29:44;10.63;;;9.47;;
59161;SDS011;44942;48.936;8.260;2022-12-07T22:34:44;12.73;;;10.00;;
59161;SDS011;44942;48.936;8.260;2022-12-07T22:39:45;10.97;;;9.27;;
59161;SDS011;44942;48.936;8.260;2022-12-07T22:44:46;11.20;;;10.00;;
59161;SDS011;44942;48.936;8.260;2022-12-07T22:49:46;10.80;;;9.23;;
59161;SDS011;44942;48.936;8.260;2022-12-07T22:54:47;11.53;;;9.67;;
59161;SDS011;44942;48.936;8.260;2022-12-07T22:59:48;11.37;;;9.30;;
59161;SDS011;44942;48.936;8.260;2022-12-07T23:04:48;11.40;;;9.80;;
59161;SDS011;44942;48.936;8.260;2022-12-07T23:09:49;10.90;;;9.77;;
59161;SDS011;44942;48.936;8.260;2022-12-07T23:14:49;12.13;;;9.60;;
59161;SDS011;44942;48.936;8.260;2022-12-07T23:19:52;12.63;;;9.80;;
59161;SDS011;44942;48.936;8.260;2022-12-07T23:24:53;11.40;;;10.20;;
59161;SDS011;44942;48.936;8.260;2022-12-07T23:29:54;11.03;;;9.83;;
59161;SDS011;44942;48.936;8.260;2022-12-07T23:34:54;11.43;;;9.43;;
59161;SDS011;44942;48.936;8.260;2022-12-07T23:39:55;12.10;;;9.37;;
59161;SDS011;44942;48.936;8.260;2022-12-07T23:44:55;12.90;;;10.50;;
59161;SDS011;44942;48.936;8.260;2022-12-07T23:49:56;13.17;;;11.77;;
59161;SDS011;44942;48.936;8.260;2022-12-07T23:54:56;14.03;;;11.90;;
59161;SDS011;44942;48.936;8.260;2022-12-07T23:59:57;11.57;;;10.37;;
